sensor_id;sensor_type;location;lat;lon;timestamp;P1;durP1;ratioP1;P2;durP2;ratioP2
11269;SDS011;5692;48.956;9.200;2023-04-25T00:01:26;148.23;;;141.10;;
11269;SDS011;5692;48.956;9.200;2023-04-25T00:03:52;140.77;;;134.02;;
11269;SDS011;5692;48.956;9.200;2023-04-25T00:06:18;136.53;;;129.97;;
11269;SDS011;5692;48.956;9.200;2023-04-25T00:08:44;141.63;;;134.82;;
11269;SDS011;5692;48.956;9.200;2023-04-25T00:11:10;134.80;;;128.30;;
11269;SDS011;5692;48.956;9.200;2023-04-25T00:13:36;130.25;;;124.00;;
11269;SDS011;5692;48.956;9.200;2023-04-25T00:16:02;131.10;;;124.80;;
11269;SDS011;5692;48.956;9.200;2023-04-25T00:18:29;135.65;;;129.15;;
11269;SDS011;5692;48.956;9.200;2023-04-25T00:20:55;136.90;;;130.33;;
11269;SDS011;5692;48.956;9.200;2023-04-25T00:23:21;144.40;;;137.48;;
11269;SDS011;5692;48.956;9.200;2023-04-25T00:25:48;142.05;;;135.25;;
11269;SDS011;5692;48.956;9.200;2023-04-25T00:28:14;139.85;;;133.15;;
11269;SDS011;5692;48.956;9.200;2023-04-25T00:30:40;143.00;;;136.10;;
11269;SDS011;5692;48.956;9.200;2023-04-25T00:33:06;141.23;;;134.43;;
11269;SDS011;5692;48.956;9.200;2023-04-25T00:35:32;134.48;;;128.02;;
11269;SDS011;5692;48.956;9.200;2023-04-25T00:37:58;158.75;;;151.15;;
11269;SDS011;5692;48.956;9.200;2023-04-25T00:40:24;141.10;;;134.30;;
11269;SDS011;5692;48.956;9.200;2023-04-25T00:42:52;144.27;;;137.38;;
11269;SDS011;5692;48.956;9.200;2023-04-25T00:45:18;143.15;;;136.27;;
11269;SDS011;5692;48.956;9.200;2023-04-25T00:47:44;140.50;;;133.75;;
11269;SDS011;5692;48.956;9.200;2023-04-25T00:50:11;143.27;;;136.38;;
11269;SDS011;5692;48.956;9.200;2023-04-25T00:52:40;139.50;;;132.82;;
11269;SDS011;5692;48.956;9.200;2023-04-25T00:55:07;135.95;;;129.45;;
11269;SDS011;5692;48.956;9.200;2023-04-25T00:57:33;143.57;;;136.68;;
11269;SDS011;5692;48.956;9.200;2023-04-25T00:59:59;140.15;;;133.43;;
11269;SDS011;5692;48.956;9.200;2023-04-25T01:02:26;131.35;;;125.05;;
11269;SDS011;5692;48.956;9.200;2023-04-25T01:04:52;131.90;;;125.60;;
11269;SDS011;5692;48.956;9.200;2023-04-25T01:07:18;130.60;;;124.30;;
11269;SDS011;5692;48.956;9.200;2023-04-25T01:09:44;138.57;;;131.93;;
11269;SDS011;5692;48.956;9.200;2023-04-25T01:12:10;147.75;;;140.68;;
11269;SDS011;5692;48.956;9.200;2023-04-25T01:14:36;144.73;;;137.80;;
11269;SDS011;5692;48.956;9.200;2023-04-25T01:17:02;140.55;;;133.80;;
11269;SDS011;5692;48.956;9.200;2023-04-25T01:19:28;128.57;;;122.38;;
11269;SDS011;5692;48.956;9.200;2023-04-25T01:21:55;131.65;;;125.32;;
11269;SDS011;5692;48.956;9.200;2023-04-25T01:24:21;133.82;;;127.43;;
11269;SDS011;5692;48.956;9.200;2023-04-25T01:26:48;140.52;;;133.77;;
11269;SDS011;5692;48.956;9.200;2023-04-25T01:29:18;138.25;;;131.65;;
11269;SDS011;5692;48.956;9.200;2023-04-25T01:31:44;128.30;;;122.10;;
11269;SDS011;5692;48.956;9.200;2023-04-25T01:34:11;126.05;;;120.00;;
11269;SDS011;5692;48.956;9.200;2023-04-25T01:36:37;131.23;;;124.93;;
11269;SDS011;5692;48.956;9.200;2023-04-25T01:39:03;135.85;;;129.35;;
11269;SDS011;5692;48.956;9.200;2023-04-25T01:41:29;132.07;;;125.72;;
11269;SDS011;5692;48.956;9.200;2023-04-25T01:43:55;133.93;;;127.53;;
11269;SDS011;5692;48.956;9.200;2023-04-25T01:46:21;127.40;;;121.28;;
11269;SDS011;5692;48.956;9.200;2023-04-25T01:48:47;130.68;;;124.38;;
11269;SDS011;5692;48.956;9.200;2023-04-25T01:51:13;129.13;;;122.93;;
11269;SDS011;5692;48.956;9.200;2023-04-25T01:53:40;124.63;;;118.63;;
11269;SDS011;5692;48.956;9.200;2023-04-25T01:56:06;130.32;;;124.07;;
11269;SDS011;5692;48.956;9.200;2023-04-25T01:58:32;123.93;;;117.97;;
11269;SDS011;5692;48.956;9.200;2023-04-25T02:00:58;140.00;;;133.30;;
11269;SDS011;5692;48.956;9.200;2023-04-25T02:03:24;134.57;;;128.10;;
11269;SDS011;5692;48.956;9.200;2023-04-25T02:05:50;129.80;;;123.60;;
11269;SDS011;5692;48.956;9.200;2023-04-25T02:08:17;134.02;;;127.60;;
11269;SDS011;5692;48.956;9.200;2023-04-25T02:10:43;125.38;;;119.38;;
11269;SDS011;5692;48.956;9.200;2023-04-25T02:13:09;115.35;;;109.85;;
11269;SDS011;5692;48.956;9.200;2023-04-25T02:15:35;121.55;;;115.70;;
11269;SDS011;5692;48.956;9.200;2023-04-25T02:18:01;132.55;;;126.20;;
11269;SDS011;5692;48.956;9.200;2023-04-25T02:20:28;129.93;;;123.72;;
11269;SDS011;5692;48.956;9.200;2023-04-25T02:22:55;130.50;;;124.20;;
11269;SDS011;5692;48.956;9.200;2023-04-25T02:25:21;127.47;;;121.38;;
11269;SDS011;5692;48.956;9.200;2023-04-25T02:27:47;130.45;;;124.15;;
11269;SDS011;5692;48.956;9.200;2023-04-25T02:30:13;128.10;;;121.95;;
11269;SDS011;5692;48.956;9.200;2023-04-25T02:32:40;136.10;;;129.57;;
11269;SDS011;5692;48.956;9.200;2023-04-25T02:35:06;126.65;;;120.55;;
11269;SDS011;5692;48.956;9.200;2023-04-25T02:37:33;116.25;;;110.65;;
11269;SDS011;5692;48.956;9.200;2023-04-25T02:39:59;110.32;;;105.03;;
11269;SDS011;5692;48.956;9.200;2023-04-25T02:42:26;126.57;;;120.50;;
11269;SDS011;5692;48.956;9.200;2023-04-25T02:44:52;124.40;;;118.40;;
11269;SDS011;5692;48.956;9.200;2023-04-25T02:47:18;123.32;;;117.43;;
11269;SDS011;5692;48.956;9.200;2023-04-25T02:49:44;117.70;;;112.03;;
11269;SDS011;5692;48.956;9.200;2023-04-25T02:52:10;123.07;;;117.18;;
11269;SDS011;5692;48.956;9.200;2023-04-25T02:54:36;130.27;;;124.03;;
11269;SDS011;5692;48.956;9.200;2023-04-25T02:57:02;133.70;;;127.27;;
11269;SDS011;5692;48.956;9.200;2023-04-25T02:59:28;133.40;;;127.00;;
11269;SDS011;5692;48.956;9.200;2023-04-25T03:01:54;125.55;;;119.55;;
11269;SDS011;5692;48.956;9.200;2023-04-25T03:04:20;122.43;;;116.57;;
11269;SDS011;5692;48.956;9.200;2023-04-25T03:06:49;124.18;;;118.20;;
11269;SDS011;5692;48.956;9.200;2023-04-25T03:09:15;120.20;;;114.40;;
11269;SDS011;5692;48.956;9.200;2023-04-25T03:11:41;128.40;;;122.22;;
11269;SDS011;5692;48.956;9.200;2023-04-25T03:14:07;134.18;;;127.75;;
11269;SDS011;5692;48.956;9.200;2023-04-25T03:16:33;134.07;;;127.68;;
11269;SDS011;5692;48.956;9.200;2023-04-25T03:19:00;133.80;;;127.38;;
11269;SDS011;5692;48.956;9.200;2023-04-25T03:21:25;124.10;;;118.10;;
11269;SDS011;5692;48.956;9.200;2023-04-25T03:23:52;138.20;;;131.57;;
11269;SDS011;5692;48.956;9.200;2023-04-25T03:26:18;118.93;;;113.22;;
11269;SDS011;5692;48.956;9.200;2023-04-25T03:28:44;126.93;;;120.82;;
11269;SDS011;5692;48.956;9.200;2023-04-25T03:31:10;133.07;;;126.68;;
11269;SDS011;5692;48.956;9.200;2023-04-25T03:33:36;123.30;;;117.40;;
11269;SDS011;5692;48.956;9.200;2023-04-25T03:36:02;119.63;;;113.88;;
11269;SDS011;5692;48.956;9.200;2023-04-25T03:38:28;122.93;;;117.03;;
11269;SDS011;5692;48.956;9.200;2023-04-25T03:40:54;126.43;;;120.32;;
11269;SDS011;5692;48.956;9.200;2023-04-25T03:43:21;121.97;;;116.10;;
11269;SDS011;5692;48.956;9.200;2023-04-25T03:45:47;129.63;;;123.40;;
11269;SDS011;5692;48.956;9.200;2023-04-25T03:48:13;123.10;;;117.20;;
11269;SDS011;5692;48.956;9.200;2023-04-25T03:50:39;117.03;;;111.43;;
11269;SDS011;5692;48.956;9.200;2023-04-25T03:53:05;118.68;;;112.97;;
11269;SDS011;5692;48.956;9.200;2023-04-25T03:55:31;117.53;;;111.88;;
11269;SDS011;5692;48.956;9.200;2023-04-25T03:57:57;117.53;;;111.88;;
11269;SDS011;5692;48.956;9.200;2023-04-25T04:00:24;123.95;;;118.00;;
11269;SDS011;5692;48.956;9.200;2023-04-25T04:02:50;123.72;;;117.80;;
11269;SDS011;5692;48.956;9.200;2023-04-25T04:05:16;117.75;;;112.10;;
11269;SDS011;5692;48.956;9.200;2023-04-25T04:07:42;131.23;;;124.93;;
11269;SDS011;5692;48.956;9.200;2023-04-25T04:10:11;131.00;;;124.70;;
11269;SDS011;5692;48.956;9.200;2023-04-25T04:12:37;128.13;;;121.97;;
11269;SDS011;5692;48.956;9.200;2023-04-25T04:15:04;131.45;;;125.15;;
11269;SDS011;5692;48.956;9.200;2023-04-25T04:17:30;135.32;;;128.85;;
11269;SDS011;5692;48.956;9.200;2023-04-25T04:19:56;123.43;;;117.50;;
11269;SDS011;5692;48.956;9.200;2023-04-25T04:22:23;128.05;;;121.90;;
11269;SDS011;5692;48.956;9.200;2023-04-25T04:24:49;128.13;;;121.97;;
11269;SDS011;5692;48.956;9.200;2023-04-25T04:27:17;116.10;;;110.53;;
11269;SDS011;5692;48.956;9.200;2023-04-25T04:29:44;133.32;;;126.93;;
11269;SDS011;5692;48.956;9.200;2023-04-25T04:32:10;127.35;;;121.25;;
11269;SDS011;5692;48.956;9.200;2023-04-25T04:34:36;121.07;;;115.25;;
11269;SDS011;5692;48.956;9.200;2023-04-25T04:37:04;120.40;;;114.60;;
11269;SDS011;5692;48.956;9.200;2023-04-25T04:39:30;117.13;;;111.53;;
11269;SDS011;5692;48.956;9.200;2023-04-25T04:41:56;124.88;;;118.88;;
11269;SDS011;5692;48.956;9.200;2023-04-25T04:44:22;110.93;;;105.63;;
11269;SDS011;5692;48.956;9.200;2023-04-25T04:46:48;105.47;;;100.37;;
11269;SDS011;5692;48.956;9.200;2023-04-25T04:49:15;116.38;;;110.80;;
11269;SDS011;5692;48.956;9.200;2023-04-25T04:51:42;114.70;;;109.20;;
11269;SDS011;5692;48.956;9.200;2023-04-25T04:54:12;114.90;;;109.38;;
11269;SDS011;5692;48.956;9.200;2023-04-25T04:56:38;109.95;;;104.65;;
11269;SDS011;5692;48.956;9.200;2023-04-25T04:59:04;117.43;;;111.80;;
11269;SDS011;5692;48.956;9.200;2023-04-25T05:01:30;116.00;;;110.40;;
11269;SDS011;5692;48.956;9.200;2023-04-25T05:03:56;122.68;;;116.78;;
11269;SDS011;5692;48.956;9.200;2023-04-25T05:06:25;126.25;;;120.20;;
11269;SDS011;5692;48.956;9.200;2023-04-25T05:08:51;124.03;;;118.05;;
11269;SDS011;5692;48.956;9.200;2023-04-25T05:11:17;129.35;;;123.13;;
11269;SDS011;5692;48.956;9.200;2023-04-25T05:13:44;127.10;;;121.00;;
11269;SDS011;5692;48.956;9.200;2023-04-25T05:16:10;125.30;;;119.30;;
11269;SDS011;5692;48.956;9.200;2023-04-25T05:18:36;125.78;;;119.75;;
11269;SDS011;5692;48.956;9.200;2023-04-25T05:21:02;124.07;;;118.10;;
11269;SDS011;5692;48.956;9.200;2023-04-25T05:23:29;118.70;;;113.00;;
11269;SDS011;5692;48.956;9.200;2023-04-25T05:25:55;121.32;;;115.53;;
11269;SDS011;5692;48.956;9.200;2023-04-25T05:28:21;126.47;;;120.40;;
11269;SDS011;5692;48.956;9.200;2023-04-25T05:30:47;117.25;;;111.63;;
11269;SDS011;5692;48.956;9.200;2023-04-25T05:33:13;114.60;;;109.10;;
11269;SDS011;5692;48.956;9.200;2023-04-25T05:35:40;111.00;;;105.68;;
11269;SDS011;5692;48.956;9.200;2023-04-25T05:38:06;118.28;;;112.60;;
11269;SDS011;5692;48.956;9.200;2023-04-25T05:40:32;116.18;;;110.57;;
11269;SDS011;5692;48.956;9.200;2023-04-25T05:42:58;114.88;;;109.38;;
11269;SDS011;5692;48.956;9.200;2023-04-25T05:45:24;119.68;;;113.93;;
11269;SDS011;5692;48.956;9.200;2023-04-25T05:47:50;127.63;;;121.53;;
11269;SDS011;5692;48.956;9.200;2023-04-25T05:50:16;122.95;;;117.05;;
11269;SDS011;5692;48.956;9.200;2023-04-25T05:52:42;124.78;;;118.78;;
11269;SDS011;5692;48.956;9.200;2023-04-25T05:55:08;114.35;;;108.85;;
11269;SDS011;5692;48.956;9.200;2023-04-25T05:57:34;121.63;;;115.80;;
11269;SDS011;5692;48.956;9.200;2023-04-25T06:00:00;131.27;;;124.97;;
11269;SDS011;5692;48.956;9.200;2023-04-25T06:02:32;127.18;;;121.07;;
11269;SDS011;5692;48.956;9.200;2023-04-25T06:04:58;127.87;;;121.77;;
11269;SDS011;5692;48.956;9.200;2023-04-25T06:07:24;123.15;;;117.22;;
11269;SDS011;5692;48.956;9.200;2023-04-25T06:09:50;124.93;;;118.93;;
11269;SDS011;5692;48.956;9.200;2023-04-25T06:12:16;128.87;;;122.67;;
11269;SDS011;5692;48.956;9.200;2023-04-25T06:14:42;128.13;;;121.97;;
11269;SDS011;5692;48.956;9.200;2023-04-25T06:17:08;123.78;;;117.85;;
11269;SDS011;5692;48.956;9.200;2023-04-25T06:19:34;124.15;;;118.18;;
11269;SDS011;5692;48.956;9.200;2023-04-25T06:22:00;125.85;;;119.80;;
11269;SDS011;5692;48.956;9.200;2023-04-25T06:24:26;124.30;;;118.30;;
11269;SDS011;5692;48.956;9.200;2023-04-25T06:26:52;127.70;;;121.57;;
11269;SDS011;5692;48.956;9.200;2023-04-25T06:29:18;128.68;;;122.50;;
11269;SDS011;5692;48.956;9.200;2023-04-25T06:31:44;133.40;;;127.00;;
11269;SDS011;5692;48.956;9.200;2023-04-25T06:34:10;137.57;;;130.98;;
11269;SDS011;5692;48.956;9.200;2023-04-25T06:36:36;130.80;;;124.50;;
11269;SDS011;5692;48.956;9.200;2023-04-25T06:39:02;141.73;;;134.93;;
11269;SDS011;5692;48.956;9.200;2023-04-25T06:41:28;144.33;;;137.43;;
11269;SDS011;5692;48.956;9.200;2023-04-25T06:43:54;135.83;;;129.30;;
11269;SDS011;5692;48.956;9.200;2023-04-25T06:46:20;139.30;;;132.60;;
11269;SDS011;5692;48.956;9.200;2023-04-25T06:48:46;144.83;;;137.90;;
11269;SDS011;5692;48.956;9.200;2023-04-25T06:51:12;140.43;;;133.73;;
11269;SDS011;5692;48.956;9.200;2023-04-25T06:53:39;149.48;;;142.30;;
11269;SDS011;5692;48.956;9.200;2023-04-25T06:56:05;148.68;;;141.55;;
11269;SDS011;5692;48.956;9.200;2023-04-25T06:58:31;140.88;;;134.10;;
11269;SDS011;5692;48.956;9.200;2023-04-25T07:00:57;135.15;;;128.65;;
11269;SDS011;5692;48.956;9.200;2023-04-25T07:03:23;141.40;;;134.60;;
11269;SDS011;5692;48.956;9.200;2023-04-25T07:05:49;143.82;;;136.93;;
11269;SDS011;5692;48.956;9.200;2023-04-25T07:08:16;155.40;;;147.95;;
11269;SDS011;5692;48.956;9.200;2023-04-25T07:10:42;150.38;;;143.18;;
11269;SDS011;5692;48.956;9.200;2023-04-25T07:13:08;147.57;;;140.48;;
11269;SDS011;5692;48.956;9.200;2023-04-25T07:15:34;159.77;;;152.10;;
11269;SDS011;5692;48.956;9.200;2023-04-25T07:18:00;143.55;;;136.65;;
11269;SDS011;5692;48.956;9.200;2023-04-25T07:20:26;143.87;;;136.97;;
11269;SDS011;5692;48.956;9.200;2023-04-25T07:22:52;145.40;;;138.40;;
11269;SDS011;5692;48.956;9.200;2023-04-25T07:25:19;140.15;;;133.45;;
11269;SDS011;5692;48.956;9.200;2023-04-25T07:27:45;127.53;;;121.43;;
11269;SDS011;5692;48.956;9.200;2023-04-25T07:30:11;139.70;;;133.00;;
11269;SDS011;5692;48.956;9.200;2023-04-25T07:32:37;138.13;;;131.50;;
11269;SDS011;5692;48.956;9.200;2023-04-25T07:35:04;139.95;;;133.25;;
11269;SDS011;5692;48.956;9.200;2023-04-25T07:37:31;140.45;;;133.75;;
11269;SDS011;5692;48.956;9.200;2023-04-25T07:39:57;130.80;;;124.50;;
11269;SDS011;5692;48.956;9.200;2023-04-25T07:42:23;144.25;;;137.35;;
11269;SDS011;5692;48.956;9.200;2023-04-25T07:44:49;131.90;;;125.57;;
11269;SDS011;5692;48.956;9.200;2023-04-25T07:47:16;133.95;;;127.53;;
11269;SDS011;5692;48.956;9.200;2023-04-25T07:49:44;130.05;;;123.80;;
11269;SDS011;5692;48.956;9.200;2023-04-25T07:52:10;129.05;;;122.85;;
11269;SDS011;5692;48.956;9.200;2023-04-25T07:54:36;122.65;;;116.75;;
11269;SDS011;5692;48.956;9.200;2023-04-25T07:57:02;135.80;;;129.30;;
11269;SDS011;5692;48.956;9.200;2023-04-25T07:59:29;131.60;;;125.30;;
11269;SDS011;5692;48.956;9.200;2023-04-25T08:01:55;129.60;;;123.38;;
11269;SDS011;5692;48.956;9.200;2023-04-25T08:04:22;125.07;;;119.07;;
11269;SDS011;5692;48.956;9.200;2023-04-25T08:06:48;116.72;;;111.13;;
11269;SDS011;5692;48.956;9.200;2023-04-25T08:09:15;121.28;;;115.45;;
11269;SDS011;5692;48.956;9.200;2023-04-25T08:11:41;112.22;;;106.82;;
11269;SDS011;5692;48.956;9.200;2023-04-25T08:14:08;118.38;;;112.68;;
11269;SDS011;5692;48.956;9.200;2023-04-25T08:16:34;118.80;;;113.10;;
11269;SDS011;5692;48.956;9.200;2023-04-25T08:19:00;120.70;;;114.90;;
11269;SDS011;5692;48.956;9.200;2023-04-25T08:21:26;125.35;;;119.35;;
11269;SDS011;5692;48.956;9.200;2023-04-25T08:23:52;121.07;;;115.28;;
11269;SDS011;5692;48.956;9.200;2023-04-25T08:26:18;130.13;;;123.90;;
11269;SDS011;5692;48.956;9.200;2023-04-25T08:28:44;123.88;;;117.93;;
11269;SDS011;5692;48.956;9.200;2023-04-25T08:31:11;134.55;;;128.07;;
11269;SDS011;5692;48.956;9.200;2023-04-25T08:33:37;140.13;;;133.40;;
11269;SDS011;5692;48.956;9.200;2023-04-25T08:36:03;126.22;;;120.15;;
11269;SDS011;5692;48.956;9.200;2023-04-25T08:38:29;123.80;;;117.88;;
11269;SDS011;5692;48.956;9.200;2023-04-25T08:40:56;122.22;;;116.32;;
11269;SDS011;5692;48.956;9.200;2023-04-25T08:43:22;126.95;;;120.85;;
11269;SDS011;5692;48.956;9.200;2023-04-25T08:45:49;127.22;;;121.13;;
11269;SDS011;5692;48.956;9.200;2023-04-25T08:48:16;128.32;;;122.15;;
11269;SDS011;5692;48.956;9.200;2023-04-25T08:50:52;125.93;;;119.88;;
11269;SDS011;5692;48.956;9.200;2023-04-25T08:53:22;140.07;;;133.38;;
11269;SDS011;5692;48.956;9.200;2023-04-25T08:55:50;126.10;;;120.05;;
11269;SDS011;5692;48.956;9.200;2023-04-25T08:58:20;117.97;;;112.28;;
11269;SDS011;5692;48.956;9.200;2023-04-25T09:00:46;127.30;;;121.20;;
11269;SDS011;5692;48.956;9.200;2023-04-25T09:03:13;128.57;;;122.38;;
11269;SDS011;5692;48.956;9.200;2023-04-25T09:05:40;129.13;;;122.93;;
11269;SDS011;5692;48.956;9.200;2023-04-25T09:08:06;132.75;;;126.35;;
11269;SDS011;5692;48.956;9.200;2023-04-25T09:10:32;136.05;;;129.55;;
11269;SDS011;5692;48.956;9.200;2023-04-25T09:13:05;132.65;;;126.28;;
11269;SDS011;5692;48.956;9.200;2023-04-25T09:15:32;125.13;;;119.13;;
11269;SDS011;5692;48.956;9.200;2023-04-25T09:17:58;136.23;;;129.68;;
11269;SDS011;5692;48.956;9.200;2023-04-25T09:20:25;130.30;;;124.05;;
11269;SDS011;5692;48.956;9.200;2023-04-25T09:23:05;140.95;;;134.18;;
11269;SDS011;5692;48.956;9.200;2023-04-25T09:25:35;135.70;;;129.20;;
11269;SDS011;5692;48.956;9.200;2023-04-25T09:28:04;139.07;;;132.43;;
11269;SDS011;5692;48.956;9.200;2023-04-25T09:30:31;131.73;;;125.40;;
11269;SDS011;5692;48.956;9.200;2023-04-25T09:32:57;136.02;;;129.52;;
11269;SDS011;5692;48.956;9.200;2023-04-25T09:35:24;125.57;;;119.55;;
11269;SDS011;5692;48.956;9.200;2023-04-25T09:37:51;131.95;;;125.63;;
11269;SDS011;5692;48.956;9.200;2023-04-25T09:40:17;138.50;;;131.88;;
11269;SDS011;5692;48.956;9.200;2023-04-25T09:42:43;135.45;;;128.95;;
11269;SDS011;5692;48.956;9.200;2023-04-25T09:45:09;141.05;;;134.27;;
11269;SDS011;5692;48.956;9.200;2023-04-25T09:47:39;140.55;;;133.82;;
11269;SDS011;5692;48.956;9.200;2023-04-25T09:50:13;127.45;;;121.32;;
11269;SDS011;5692;48.956;9.200;2023-04-25T09:52:40;134.70;;;128.25;;
11269;SDS011;5692;48.956;9.200;2023-04-25T09:55:06;154.55;;;147.15;;
11269;SDS011;5692;48.956;9.200;2023-04-25T09:57:32;144.70;;;137.75;;
11269;SDS011;5692;48.956;9.200;2023-04-25T09:59:59;135.57;;;129.07;;
11269;SDS011;5692;48.956;9.200;2023-04-25T10:02:26;135.30;;;128.80;;
11269;SDS011;5692;48.956;9.200;2023-04-25T10:05:00;128.98;;;122.78;;
11269;SDS011;5692;48.956;9.200;2023-04-25T10:07:29;138.35;;;131.70;;
11269;SDS011;5692;48.956;9.200;2023-04-25T10:09:59;140.80;;;134.05;;
11269;SDS011;5692;48.956;9.200;2023-04-25T10:12:27;132.68;;;126.28;;
11269;SDS011;5692;48.956;9.200;2023-04-25T10:14:54;131.60;;;125.28;;
11269;SDS011;5692;48.956;9.200;2023-04-25T10:17:20;128.88;;;122.68;;
11269;SDS011;5692;48.956;9.200;2023-04-25T10:19:47;134.68;;;128.20;;
11269;SDS011;5692;48.956;9.200;2023-04-25T10:24:57;114.13;;;108.63;;
11269;SDS011;5692;48.956;9.200;2023-04-25T10:27:24;121.70;;;115.90;;
11269;SDS011;5692;48.956;9.200;2023-04-25T10:30:07;122.88;;;116.97;;
11269;SDS011;5692;48.956;9.200;2023-04-25T10:32:36;125.95;;;119.90;;
11269;SDS011;5692;48.956;9.200;2023-04-25T10:37:36;114.35;;;108.88;;
11269;SDS011;5692;48.956;9.200;2023-04-25T10:40:08;118.57;;;112.90;;
11269;SDS011;5692;48.956;9.200;2023-04-25T10:42:34;113.47;;;108.03;;
11269;SDS011;5692;48.956;9.200;2023-04-25T10:45:07;115.90;;;110.30;;
11269;SDS011;5692;48.956;9.200;2023-04-25T10:47:36;119.90;;;114.15;;
11269;SDS011;5692;48.956;9.200;2023-04-25T10:50:06;121.38;;;115.57;;
11269;SDS011;5692;48.956;9.200;2023-04-25T10:52:36;119.05;;;113.35;;
11269;SDS011;5692;48.956;9.200;2023-04-25T10:55:05;113.53;;;108.07;;
11269;SDS011;5692;48.956;9.200;2023-04-25T10:57:41;114.50;;;109.00;;
11269;SDS011;5692;48.956;9.200;2023-04-25T11:05:10;201.63;;;133.98;;
11269;SDS011;5692;48.956;9.200;2023-04-25T11:07:49;116.20;;;110.60;;
11269;SDS011;5692;48.956;9.200;2023-04-25T11:10:16;123.22;;;117.32;;
11269;SDS011;5692;48.956;9.200;2023-04-25T11:12:43;120.40;;;114.60;;
11269;SDS011;5692;48.956;9.200;2023-04-25T11:15:10;118.57;;;112.88;;
11269;SDS011;5692;48.956;9.200;2023-04-25T11:17:36;122.95;;;117.05;;
11269;SDS011;5692;48.956;9.200;2023-04-25T11:20:04;123.60;;;117.70;;
11269;SDS011;5692;48.956;9.200;2023-04-25T11:22:37;118.25;;;112.55;;
11269;SDS011;5692;48.956;9.200;2023-04-25T11:25:10;127.13;;;121.03;;
11269;SDS011;5692;48.956;9.200;2023-04-25T11:27:49;126.18;;;120.10;;
11269;SDS011;5692;48.956;9.200;2023-04-25T11:30:16;132.88;;;126.50;;
11269;SDS011;5692;48.956;9.200;2023-04-25T11:32:42;115.65;;;110.07;;
11269;SDS011;5692;48.956;9.200;2023-04-25T11:35:11;119.88;;;114.13;;
11269;SDS011;5692;48.956;9.200;2023-04-25T11:37:40;114.18;;;108.70;;
11269;SDS011;5692;48.956;9.200;2023-04-25T11:40:07;115.65;;;110.10;;
11269;SDS011;5692;48.956;9.200;2023-04-25T11:42:35;115.20;;;109.68;;
11269;SDS011;5692;48.956;9.200;2023-04-25T11:45:02;120.85;;;115.05;;
11269;SDS011;5692;48.956;9.200;2023-04-25T11:47:32;130.32;;;124.05;;
11269;SDS011;5692;48.956;9.200;2023-04-25T11:50:01;124.03;;;118.07;;
11269;SDS011;5692;48.956;9.200;2023-04-25T11:55:06;119.60;;;113.88;;
11269;SDS011;5692;48.956;9.200;2023-04-25T11:57:32;126.28;;;120.20;;
11269;SDS011;5692;48.956;9.200;2023-04-25T12:00:31;122.97;;;117.07;;
11269;SDS011;5692;48.956;9.200;2023-04-25T12:02:55;120.40;;;114.60;;
11269;SDS011;5692;48.956;9.200;2023-04-25T12:05:27;124.65;;;118.65;;
11269;SDS011;5692;48.956;9.200;2023-04-25T12:07:53;125.75;;;119.70;;
11269;SDS011;5692;48.956;9.200;2023-04-25T12:10:23;120.95;;;115.13;;
11269;SDS011;5692;48.956;9.200;2023-04-25T12:12:50;117.25;;;111.65;;
11269;SDS011;5692;48.956;9.200;2023-04-25T12:15:17;133.90;;;127.50;;
11269;SDS011;5692;48.956;9.200;2023-04-25T12:17:47;125.82;;;119.78;;
11269;SDS011;5692;48.956;9.200;2023-04-25T12:20:14;126.05;;;120.00;;
11269;SDS011;5692;48.956;9.200;2023-04-25T12:22:50;128.38;;;122.20;;
11269;SDS011;5692;48.956;9.200;2023-04-25T12:30:53;129.57;;;123.38;;
11269;SDS011;5692;48.956;9.200;2023-04-25T12:33:19;136.93;;;130.32;;
11269;SDS011;5692;48.956;9.200;2023-04-25T12:35:46;140.60;;;133.90;;
11269;SDS011;5692;48.956;9.200;2023-04-25T12:38:19;130.52;;;124.25;;
11269;SDS011;5692;48.956;9.200;2023-04-25T12:40:46;159.05;;;151.43;;
11269;SDS011;5692;48.956;9.200;2023-04-25T12:43:12;153.55;;;146.18;;
11269;SDS011;5692;48.956;9.200;2023-04-25T12:45:38;149.60;;;142.40;;
11269;SDS011;5692;48.956;9.200;2023-04-25T12:48:04;152.43;;;145.13;;
11269;SDS011;5692;48.956;9.200;2023-04-25T12:50:30;151.93;;;144.63;;
11269;SDS011;5692;48.956;9.200;2023-04-25T12:52:57;158.60;;;151.00;;
11269;SDS011;5692;48.956;9.200;2023-04-25T12:55:23;154.80;;;147.40;;
11269;SDS011;5692;48.956;9.200;2023-04-25T12:57:49;163.77;;;155.93;;
11269;SDS011;5692;48.956;9.200;2023-04-25T13:00:15;157.85;;;150.25;;
11269;SDS011;5692;48.956;9.200;2023-04-25T13:02:43;158.18;;;150.57;;
11269;SDS011;5692;48.956;9.200;2023-04-25T13:05:09;160.47;;;152.77;;
11269;SDS011;5692;48.956;9.200;2023-04-25T13:07:36;159.68;;;152.02;;
11269;SDS011;5692;48.956;9.200;2023-04-25T13:10:02;153.13;;;145.77;;
11269;SDS011;5692;48.956;9.200;2023-04-25T13:12:28;157.52;;;149.98;;
11269;SDS011;5692;48.956;9.200;2023-04-25T13:14:54;172.85;;;164.55;;
11269;SDS011;5692;48.956;9.200;2023-04-25T13:17:20;161.25;;;153.55;;
11269;SDS011;5692;48.956;9.200;2023-04-25T13:19:46;161.17;;;153.43;;
11269;SDS011;5692;48.956;9.200;2023-04-25T13:22:12;154.20;;;146.80;;
11269;SDS011;5692;48.956;9.200;2023-04-25T13:24:40;159.88;;;152.18;;
11269;SDS011;5692;48.956;9.200;2023-04-25T13:27:06;173.20;;;164.93;;
11269;SDS011;5692;48.956;9.200;2023-04-25T13:29:32;163.27;;;155.45;;
11269;SDS011;5692;48.956;9.200;2023-04-25T13:32:00;168.35;;;160.25;;
11269;SDS011;5692;48.956;9.200;2023-04-25T13:34:26;162.00;;;154.23;;
11269;SDS011;5692;48.956;9.200;2023-04-25T13:36:52;181.32;;;172.65;;
11269;SDS011;5692;48.956;9.200;2023-04-25T13:39:18;176.30;;;167.85;;
11269;SDS011;5692;48.956;9.200;2023-04-25T13:41:44;186.73;;;177.80;;
11269;SDS011;5692;48.956;9.200;2023-04-25T13:44:13;185.77;;;176.88;;
11269;SDS011;5692;48.956;9.200;2023-04-25T13:46:39;180.98;;;172.30;;
11269;SDS011;5692;48.956;9.200;2023-04-25T13:49:05;173.40;;;165.10;;
11269;SDS011;5692;48.956;9.200;2023-04-25T13:51:31;170.52;;;162.35;;
11269;SDS011;5692;48.956;9.200;2023-04-25T13:53:57;162.30;;;154.50;;
11269;SDS011;5692;48.956;9.200;2023-04-25T13:56:23;169.85;;;161.73;;
11269;SDS011;5692;48.956;9.200;2023-04-25T13:58:50;169.13;;;161.02;;
11269;SDS011;5692;48.956;9.200;2023-04-25T14:01:16;168.65;;;160.55;;
11269;SDS011;5692;48.956;9.200;2023-04-25T14:03:43;172.20;;;163.95;;
11269;SDS011;5692;48.956;9.200;2023-04-25T14:06:09;161.18;;;153.45;;
11269;SDS011;5692;48.956;9.200;2023-04-25T14:08:36;170.63;;;162.43;;
11269;SDS011;5692;48.956;9.200;2023-04-25T14:11:02;171.48;;;163.27;;
11269;SDS011;5692;48.956;9.200;2023-04-25T14:13:28;164.52;;;156.65;;
11269;SDS011;5692;48.956;9.200;2023-04-25T14:15:54;163.05;;;155.25;;
11269;SDS011;5692;48.956;9.200;2023-04-25T14:18:20;154.80;;;147.40;;
11269;SDS011;5692;48.956;9.200;2023-04-25T14:20:46;157.85;;;150.30;;
11269;SDS011;5692;48.956;9.200;2023-04-25T14:23:12;166.82;;;158.85;;
11269;SDS011;5692;48.956;9.200;2023-04-25T14:25:38;145.00;;;138.05;;